sensor_id;sensor_type;location;lat;lon;timestamp;temperature;humidity
27492;DHT22;14927;51.210;6.838;2023-05-07T00:01:28;19.90;65.80
27492;DHT22;14927;51.210;6.838;2023-05-07T00:04:13;19.90;65.80
27492;DHT22;14927;51.210;6.838;2023-05-07T00:06:57;19.90;65.80
27492;DHT22;14927;51.210;6.838;2023-05-07T00:09:42;19.90;65.90
27492;DHT22;14927;51.210;6.838;2023-05-07T00:12:26;19.90;66.00
27492;DHT22;14927;51.210;6.838;2023-05-07T00:15:11;19.80;66.00
27492;DHT22;14927;51.210;6.838;2023-05-07T00:17:56;19.80;66.10
27492;DHT22;14927;51.210;6.838;2023-05-07T00:20:41;19.80;66.10
27492;DHT22;14927;51.210;6.838;2023-05-07T00:23:26;19.80;66.10
27492;DHT22;14927;51.210;6.838;2023-05-07T00:26:11;19.90;66.20
27492;DHT22;14927;51.210;6.838;2023-05-07T00:28:55;19.80;66.20
27492;DHT22;14927;51.210;6.838;2023-05-07T00:31:40;19.80;66.20
27492;DHT22;14927;51.210;6.838;2023-05-07T00:34:25;19.80;66.10
27492;DHT22;14927;51.210;6.838;2023-05-07T00:37:09;19.80;66.10
27492;DHT22;14927;51.210;6.838;2023-05-07T00:39:54;19.80;66.10
27492;DHT22;14927;51.210;6.838;2023-05-07T00:42:39;19.80;66.80
27492;DHT22;14927;51.210;6.838;2023-05-07T00:45:27;19.80;66.10
27492;DHT22;14927;51.210;6.838;2023-05-07T00:48:13;19.80;66.10
27492;DHT22;14927;51.210;6.838;2023-05-07T00:50:58;19.80;66.00
27492;DHT22;14927;51.210;6.838;2023-05-07T00:53:42;19.70;65.90
27492;DHT22;14927;51.210;6.838;2023-05-07T00:56:27;19.80;66.10
27492;DHT22;14927;51.210;6.838;2023-05-07T00:59:11;19.80;66.10
27492;DHT22;14927;51.210;6.838;2023-05-07T01:01:56;19.70;66.10
27492;DHT22;14927;51.210;6.838;2023-05-07T01:04:41;19.70;66.20
27492;DHT22;14927;51.210;6.838;2023-05-07T01:07:25;19.70;66.10
27492;DHT22;14927;51.210;6.838;2023-05-07T01:10:11;19.70;66.20
27492;DHT22;14927;51.210;6.838;2023-05-07T01:12:57;19.70;66.20
27492;DHT22;14927;51.210;6.838;2023-05-07T01:15:43;19.60;66.30
27492;DHT22;14927;51.210;6.838;2023-05-07T01:18:27;19.60;66.30
27492;DHT22;14927;51.210;6.838;2023-05-07T01:21:15;19.60;66.40
27492;DHT22;14927;51.210;6.838;2023-05-07T01:24:01;19.60;66.50
27492;DHT22;14927;51.210;6.838;2023-05-07T01:26:46;19.60;66.40
27492;DHT22;14927;51.210;6.838;2023-05-07T01:29:30;19.60;66.50
27492;DHT22;14927;51.210;6.838;2023-05-07T01:32:19;19.50;66.50
27492;DHT22;14927;51.210;6.838;2023-05-07T01:35:20;19.50;66.80
27492;DHT22;14927;51.210;6.838;2023-05-07T01:38:07;19.50;66.90
27492;DHT22;14927;51.210;6.838;2023-05-07T01:40:52;19.50;66.70
27492;DHT22;14927;51.210;6.838;2023-05-07T01:43:37;19.50;66.80
27492;DHT22;14927;51.210;6.838;2023-05-07T01:46:22;19.50;66.90
27492;DHT22;14927;51.210;6.838;2023-05-07T01:49:07;19.50;66.80
27492;DHT22;14927;51.210;6.838;2023-05-07T01:51:51;19.50;66.90
27492;DHT22;14927;51.210;6.838;2023-05-07T01:54:36;19.40;67.60
27492;DHT22;14927;51.210;6.838;2023-05-07T01:57:21;19.40;66.80
27492;DHT22;14927;51.210;6.838;2023-05-07T02:00:06;19.40;66.80
27492;DHT22;14927;51.210;6.838;2023-05-07T02:02:52;19.40;66.90
27492;DHT22;14927;51.210;6.838;2023-05-07T02:05:36;19.30;67.60
27492;DHT22;14927;51.210;6.838;2023-05-07T02:08:21;19.30;66.90
27492;DHT22;14927;51.210;6.838;2023-05-07T02:11:06;19.30;66.90
27492;DHT22;14927;51.210;6.838;2023-05-07T02:13:50;19.30;67.00
27492;DHT22;14927;51.210;6.838;2023-05-07T02:16:35;19.20;66.90
27492;DHT22;14927;51.210;6.838;2023-05-07T02:19:19;19.20;66.90
27492;DHT22;14927;51.210;6.838;2023-05-07T02:22:04;19.20;66.90
27492;DHT22;14927;51.210;6.838;2023-05-07T02:24:49;19.20;67.00
27492;DHT22;14927;51.210;6.838;2023-05-07T02:27:34;19.20;67.90
27492;DHT22;14927;51.210;6.838;2023-05-07T02:30:18;19.10;67.10
27492;DHT22;14927;51.210;6.838;2023-05-07T02:33:05;19.10;67.20
27492;DHT22;14927;51.210;6.838;2023-05-07T02:35:50;19.10;67.30
27492;DHT22;14927;51.210;6.838;2023-05-07T02:38:36;19.10;67.30
27492;DHT22;14927;51.210;6.838;2023-05-07T02:41:20;19.10;67.30
27492;DHT22;14927;51.210;6.838;2023-05-07T02:44:05;19.00;67.20
27492;DHT22;14927;51.210;6.838;2023-05-07T02:46:50;19.00;67.30
27492;DHT22;14927;51.210;6.838;2023-05-07T02:49:34;19.10;67.30
27492;DHT22;14927;51.210;6.838;2023-05-07T02:52:19;19.00;67.10
27492;DHT22;14927;51.210;6.838;2023-05-07T02:55:04;19.00;67.00
27492;DHT22;14927;51.210;6.838;2023-05-07T02:57:49;19.00;67.00
27492;DHT22;14927;51.210;6.838;2023-05-07T03:00:34;19.00;66.90
27492;DHT22;14927;51.210;6.838;2023-05-07T03:03:18;19.00;66.80
27492;DHT22;14927;51.210;6.838;2023-05-07T03:06:03;19.00;66.70
27492;DHT22;14927;51.210;6.838;2023-05-07T03:08:48;19.00;66.70
27492;DHT22;14927;51.210;6.838;2023-05-07T03:11:32;19.00;66.60
27492;DHT22;14927;51.210;6.838;2023-05-07T03:14:17;19.00;66.60
27492;DHT22;14927;51.210;6.838;2023-05-07T03:17:01;19.00;66.40
27492;DHT22;14927;51.210;6.838;2023-05-07T03:19:46;19.00;66.40
27492;DHT22;14927;51.210;6.838;2023-05-07T03:22:30;19.00;66.40
27492;DHT22;14927;51.210;6.838;2023-05-07T03:25:15;19.00;66.30
27492;DHT22;14927;51.210;6.838;2023-05-07T03:28:00;19.00;66.30
27492;DHT22;14927;51.210;6.838;2023-05-07T03:30:44;19.00;66.20
27492;DHT22;14927;51.210;6.838;2023-05-07T03:33:29;19.00;66.20
27492;DHT22;14927;51.210;6.838;2023-05-07T03:36:14;18.90;66.20
27492;DHT22;14927;51.210;6.838;2023-05-07T03:38:58;18.90;66.20
27492;DHT22;14927;51.210;6.838;2023-05-07T03:41:43;18.90;66.20
27492;DHT22;14927;51.210;6.838;2023-05-07T03:44:28;18.90;66.10
27492;DHT22;14927;51.210;6.838;2023-05-07T03:47:12;18.90;66.20
27492;DHT22;14927;51.210;6.838;2023-05-07T03:49:57;18.90;66.20
27492;DHT22;14927;51.210;6.838;2023-05-07T03:52:41;18.90;66.20
27492;DHT22;14927;51.210;6.838;2023-05-07T03:55:26;18.90;66.30
27492;DHT22;14927;51.210;6.838;2023-05-07T03:58:11;18.90;67.10
27492;DHT22;14927;51.210;6.838;2023-05-07T04:00:55;18.90;66.40
27492;DHT22;14927;51.210;6.838;2023-05-07T04:03:40;18.90;66.40
27492;DHT22;14927;51.210;6.838;2023-05-07T04:06:24;18.90;66.40
27492;DHT22;14927;51.210;6.838;2023-05-07T04:09:09;18.90;66.60
27492;DHT22;14927;51.210;6.838;2023-05-07T04:11:53;18.90;66.60
27492;DHT22;14927;51.210;6.838;2023-05-07T04:14:38;18.80;66.50
27492;DHT22;14927;51.210;6.838;2023-05-07T04:17:23;18.80;66.60
27492;DHT22;14927;51.210;6.838;2023-05-07T04:20:15;18.80;66.60
27492;DHT22;14927;51.210;6.838;2023-05-07T04:23:00;18.80;66.80
27492;DHT22;14927;51.210;6.838;2023-05-07T04:25:44;18.80;66.60
27492;DHT22;14927;51.210;6.838;2023-05-07T04:28:29;18.80;66.60
27492;DHT22;14927;51.210;6.838;2023-05-07T04:31:14;18.80;66.60
27492;DHT22;14927;51.210;6.838;2023-05-07T04:33:59;18.80;66.60
27492;DHT22;14927;51.210;6.838;2023-05-07T04:36:44;18.90;66.60
27492;DHT22;14927;51.210;6.838;2023-05-07T04:39:30;18.90;66.60
27492;DHT22;14927;51.210;6.838;2023-05-07T04:42:16;18.90;66.50
27492;DHT22;14927;51.210;6.838;2023-05-07T04:45:01;18.90;66.50
27492;DHT22;14927;51.210;6.838;2023-05-07T04:47:46;18.90;66.30
27492;DHT22;14927;51.210;6.838;2023-05-07T04:50:30;18.90;66.20
27492;DHT22;14927;51.210;6.838;2023-05-07T04:53:16;18.90;66.10
27492;DHT22;14927;51.210;6.838;2023-05-07T04:56:01;18.90;66.10
27492;DHT22;14927;51.210;6.838;2023-05-07T04:58:46;18.90;66.00
27492;DHT22;14927;51.210;6.838;2023-05-07T05:01:30;19.00;66.10
27492;DHT22;14927;51.210;6.838;2023-05-07T05:04:15;19.00;66.00
27492;DHT22;14927;51.210;6.838;2023-05-07T05:06:59;19.00;65.90
27492;DHT22;14927;51.210;6.838;2023-05-07T05:09:44;19.00;65.90
27492;DHT22;14927;51.210;6.838;2023-05-07T05:12:29;19.00;65.80
27492;DHT22;14927;51.210;6.838;2023-05-07T05:15:14;19.00;65.80
27492;DHT22;14927;51.210;6.838;2023-05-07T05:17:59;19.10;65.80
27492;DHT22;14927;51.210;6.838;2023-05-07T05:20:43;19.00;65.70
27492;DHT22;14927;51.210;6.838;2023-05-07T05:23:28;19.00;65.70
27492;DHT22;14927;51.210;6.838;2023-05-07T05:26:13;19.10;65.80
27492;DHT22;14927;51.210;6.838;2023-05-07T05:28:57;19.10;65.90
27492;DHT22;14927;51.210;6.838;2023-05-07T05:31:42;19.10;65.80
27492;DHT22;14927;51.210;6.838;2023-05-07T05:34:27;19.10;65.90
27492;DHT22;14927;51.210;6.838;2023-05-07T05:37:11;19.10;65.90
27492;DHT22;14927;51.210;6.838;2023-05-07T05:39:57;19.20;65.90
27492;DHT22;14927;51.210;6.838;2023-05-07T05:42:42;19.20;65.80
27492;DHT22;14927;51.210;6.838;2023-05-07T05:45:26;19.20;65.60
27492;DHT22;14927;51.210;6.838;2023-05-07T05:48:11;19.20;65.50
27492;DHT22;14927;51.210;6.838;2023-05-07T05:50:56;19.20;65.40
27492;DHT22;14927;51.210;6.838;2023-05-07T05:53:40;19.20;65.20
27492;DHT22;14927;51.210;6.838;2023-05-07T05:56:25;19.30;65.00
27492;DHT22;14927;51.210;6.838;2023-05-07T05:59:10;19.30;64.80
27492;DHT22;14927;51.210;6.838;2023-05-07T06:01:54;19.40;64.90
27492;DHT22;14927;51.210;6.838;2023-05-07T06:04:39;19.40;64.80
27492;DHT22;14927;51.210;6.838;2023-05-07T06:07:24;19.40;64.60
27492;DHT22;14927;51.210;6.838;2023-05-07T06:10:09;19.40;64.50
27492;DHT22;14927;51.210;6.838;2023-05-07T06:12:54;19.50;64.30
27492;DHT22;14927;51.210;6.838;2023-05-07T06:15:39;19.50;64.20
27492;DHT22;14927;51.210;6.838;2023-05-07T06:18:23;19.50;64.00
27492;DHT22;14927;51.210;6.838;2023-05-07T06:21:09;19.60;63.80
27492;DHT22;14927;51.210;6.838;2023-05-07T06:23:55;19.60;63.50
27492;DHT22;14927;51.210;6.838;2023-05-07T06:26:40;19.60;63.40
27492;DHT22;14927;51.210;6.838;2023-05-07T06:29:30;19.70;63.40
27492;DHT22;14927;51.210;6.838;2023-05-07T06:32:43;19.70;63.30
27492;DHT22;14927;51.210;6.838;2023-05-07T06:35:34;19.80;63.10
27492;DHT22;14927;51.210;6.838;2023-05-07T06:38:50;19.90;62.90
27492;DHT22;14927;51.210;6.838;2023-05-07T06:41:41;19.90;62.80
27492;DHT22;14927;51.210;6.838;2023-05-07T06:44:28;19.90;62.60
27492;DHT22;14927;51.210;6.838;2023-05-07T06:47:20;20.00;62.70
27492;DHT22;14927;51.210;6.838;2023-05-07T06:50:22;20.00;62.70
27492;DHT22;14927;51.210;6.838;2023-05-07T06:53:40;20.00;62.30
27492;DHT22;14927;51.210;6.838;2023-05-07T06:56:33;20.10;62.20
27492;DHT22;14927;51.210;6.838;2023-05-07T06:59:18;20.10;62.20
27492;DHT22;14927;51.210;6.838;2023-05-07T07:02:03;20.20;61.80
27492;DHT22;14927;51.210;6.838;2023-05-07T07:04:47;20.20;61.60
27492;DHT22;14927;51.210;6.838;2023-05-07T07:08:07;20.30;61.50
27492;DHT22;14927;51.210;6.838;2023-05-07T07:11:24;20.40;61.40
27492;DHT22;14927;51.210;6.838;2023-05-07T07:14:15;20.40;61.50
27492;DHT22;14927;51.210;6.838;2023-05-07T07:17:12;20.70;61.10
27492;DHT22;14927;51.210;6.838;2023-05-07T07:20:03;20.60;60.50
27492;DHT22;14927;51.210;6.838;2023-05-07T07:22:54;20.60;60.30
27492;DHT22;14927;51.210;6.838;2023-05-07T07:25:42;20.70;59.70
27492;DHT22;14927;51.210;6.838;2023-05-07T07:28:26;20.80;59.80
27492;DHT22;14927;51.210;6.838;2023-05-07T07:31:11;20.80;59.30
27492;DHT22;14927;51.210;6.838;2023-05-07T07:33:56;20.90;59.00
27492;DHT22;14927;51.210;6.838;2023-05-07T07:36:41;20.90;58.80
27492;DHT22;14927;51.210;6.838;2023-05-07T07:39:26;21.00;58.70
27492;DHT22;14927;51.210;6.838;2023-05-07T07:42:10;21.10;58.40
27492;DHT22;14927;51.210;6.838;2023-05-07T07:44:55;21.10;58.20
27492;DHT22;14927;51.210;6.838;2023-05-07T07:47:41;21.20;58.10
27492;DHT22;14927;51.210;6.838;2023-05-07T07:50:25;21.30;58.00
27492;DHT22;14927;51.210;6.838;2023-05-07T07:53:10;21.30;57.80
27492;DHT22;14927;51.210;6.838;2023-05-07T07:55:55;21.40;57.80
27492;DHT22;14927;51.210;6.838;2023-05-07T07:58:40;21.40;57.70
27492;DHT22;14927;51.210;6.838;2023-05-07T08:01:29;21.50;57.60
27492;DHT22;14927;51.210;6.838;2023-05-07T08:04:14;21.50;57.40
27492;DHT22;14927;51.210;6.838;2023-05-07T08:06:59;21.60;57.10
27492;DHT22;14927;51.210;6.838;2023-05-07T08:09:43;21.60;57.00
27492;DHT22;14927;51.210;6.838;2023-05-07T08:12:28;21.70;57.00
27492;DHT22;14927;51.210;6.838;2023-05-07T08:15:12;21.80;56.90
27492;DHT22;14927;51.210;6.838;2023-05-07T08:17:58;21.80;56.70
27492;DHT22;14927;51.210;6.838;2023-05-07T08:20:44;21.90;56.70
27492;DHT22;14927;51.210;6.838;2023-05-07T08:23:28;21.90;56.60
27492;DHT22;14927;51.210;6.838;2023-05-07T08:26:13;22.00;56.30
27492;DHT22;14927;51.210;6.838;2023-05-07T08:28:58;22.10;56.20
27492;DHT22;14927;51.210;6.838;2023-05-07T08:31:42;22.10;56.30
27492;DHT22;14927;51.210;6.838;2023-05-07T08:34:27;22.20;56.20
27492;DHT22;14927;51.210;6.838;2023-05-07T08:37:12;22.30;56.20
27492;DHT22;14927;51.210;6.838;2023-05-07T08:39:56;22.30;56.00
27492;DHT22;14927;51.210;6.838;2023-05-07T08:42:41;22.40;55.90
27492;DHT22;14927;51.210;6.838;2023-05-07T08:45:27;22.50;56.50
27492;DHT22;14927;51.210;6.838;2023-05-07T08:48:16;22.50;55.70
27492;DHT22;14927;51.210;6.838;2023-05-07T08:51:01;22.70;55.50
27492;DHT22;14927;51.210;6.838;2023-05-07T08:53:47;22.80;55.60
27492;DHT22;14927;51.210;6.838;2023-05-07T08:56:32;22.80;55.40
27492;DHT22;14927;51.210;6.838;2023-05-07T08:59:25;23.00;55.00
27492;DHT22;14927;51.210;6.838;2023-05-07T09:02:11;23.00;54.70
27492;DHT22;14927;51.210;6.838;2023-05-07T09:04:56;23.00;54.10
27492;DHT22;14927;51.210;6.838;2023-05-07T09:07:41;23.20;54.00
27492;DHT22;14927;51.210;6.838;2023-05-07T09:10:26;23.30;53.70
27492;DHT22;14927;51.210;6.838;2023-05-07T09:13:14;23.40;53.50
27492;DHT22;14927;51.210;6.838;2023-05-07T09:16:08;23.60;53.00
27492;DHT22;14927;51.210;6.838;2023-05-07T09:18:54;23.60;52.80
27492;DHT22;14927;51.210;6.838;2023-05-07T09:21:41;23.70;52.30
27492;DHT22;14927;51.210;6.838;2023-05-07T09:24:26;23.80;51.60
27492;DHT22;14927;51.210;6.838;2023-05-07T09:27:12;23.90;51.40
27492;DHT22;14927;51.210;6.838;2023-05-07T09:29:57;24.00;51.10
27492;DHT22;14927;51.210;6.838;2023-05-07T09:32:42;24.10;50.90
27492;DHT22;14927;51.210;6.838;2023-05-07T09:35:29;24.20;50.70
27492;DHT22;14927;51.210;6.838;2023-05-07T09:38:15;24.20;50.50
27492;DHT22;14927;51.210;6.838;2023-05-07T09:41:10;24.30;50.30
27492;DHT22;14927;51.210;6.838;2023-05-07T09:43:57;24.40;49.60
27492;DHT22;14927;51.210;6.838;2023-05-07T09:46:43;24.40;49.70
27492;DHT22;14927;51.210;6.838;2023-05-07T09:49:34;24.50;49.70
27492;DHT22;14927;51.210;6.838;2023-05-07T09:52:20;24.40;49.20
27492;DHT22;14927;51.210;6.838;2023-05-07T09:55:06;24.60;49.20
27492;DHT22;14927;51.210;6.838;2023-05-07T09:57:57;24.70;48.80
27492;DHT22;14927;51.210;6.838;2023-05-07T10:00:43;24.80;48.40
27492;DHT22;14927;51.210;6.838;2023-05-07T10:03:35;24.80;48.50
27492;DHT22;14927;51.210;6.838;2023-05-07T10:06:29;24.90;48.30
27492;DHT22;14927;51.210;6.838;2023-05-07T10:09:15;25.00;48.50
27492;DHT22;14927;51.210;6.838;2023-05-07T10:12:00;25.10;48.40
27492;DHT22;14927;51.210;6.838;2023-05-07T10:14:45;25.20;48.30
27492;DHT22;14927;51.210;6.838;2023-05-07T10:17:37;25.30;47.90
27492;DHT22;14927;51.210;6.838;2023-05-07T10:20:23;25.40;47.90
27492;DHT22;14927;51.210;6.838;2023-05-07T10:23:08;25.50;47.90
27492;DHT22;14927;51.210;6.838;2023-05-07T10:25:57;25.50;46.70
27492;DHT22;14927;51.210;6.838;2023-05-07T10:28:47;25.70;46.80
27492;DHT22;14927;51.210;6.838;2023-05-07T10:34:47;25.90;45.80
27492;DHT22;14927;51.210;6.838;2023-05-07T10:37:33;26.00;46.20
27492;DHT22;14927;51.210;6.838;2023-05-07T10:40:20;26.10;45.30
27492;DHT22;14927;51.210;6.838;2023-05-07T10:43:05;26.20;44.50
27492;DHT22;14927;51.210;6.838;2023-05-07T10:46:17;26.40;45.20
27492;DHT22;14927;51.210;6.838;2023-05-07T11:01:05;26.80;42.20
27492;DHT22;14927;51.210;6.838;2023-05-07T11:04:23;26.90;43.00
27492;DHT22;14927;51.210;6.838;2023-05-07T11:10:04;27.20;43.90
27492;DHT22;14927;51.210;6.838;2023-05-07T11:12:51;27.20;42.60
27492;DHT22;14927;51.210;6.838;2023-05-07T11:15:48;27.30;42.30
27492;DHT22;14927;51.210;6.838;2023-05-07T11:18:54;27.40;41.60
27492;DHT22;14927;51.210;6.838;2023-05-07T11:21:47;27.50;40.80
27492;DHT22;14927;51.210;6.838;2023-05-07T11:25:06;27.80;40.20
27492;DHT22;14927;51.210;6.838;2023-05-07T11:27:54;27.70;40.60
27492;DHT22;14927;51.210;6.838;2023-05-07T11:30:48;27.80;40.50
27492;DHT22;14927;51.210;6.838;2023-05-07T11:33:37;27.70;40.30
27492;DHT22;14927;51.210;6.838;2023-05-07T11:36:23;27.90;40.30
27492;DHT22;14927;51.210;6.838;2023-05-07T11:39:25;27.90;40.30
27492;DHT22;14927;51.210;6.838;2023-05-07T11:42:31;27.90;39.20
27492;DHT22;14927;51.210;6.838;2023-05-07T11:45:25;28.00;39.90
27492;DHT22;14927;51.210;6.838;2023-05-07T11:48:09;28.00;39.30
27492;DHT22;14927;51.210;6.838;2023-05-07T11:51:05;28.00;39.50
27492;DHT22;14927;51.210;6.838;2023-05-07T11:53:50;28.00;39.20
27492;DHT22;14927;51.210;6.838;2023-05-07T11:56:35;28.00;39.60
27492;DHT22;14927;51.210;6.838;2023-05-07T11:59:19;28.10;39.40
27492;DHT22;14927;51.210;6.838;2023-05-07T12:02:04;28.10;39.30
27492;DHT22;14927;51.210;6.838;2023-05-07T12:04:49;28.10;39.20
27492;DHT22;14927;51.210;6.838;2023-05-07T12:07:34;28.10;38.80
27492;DHT22;14927;51.210;6.838;2023-05-07T12:10:20;28.10;38.40
27492;DHT22;14927;51.210;6.838;2023-05-07T12:13:23;28.10;38.70
27492;DHT22;14927;51.210;6.838;2023-05-07T12:16:09;28.10;38.10
27492;DHT22;14927;51.210;6.838;2023-05-07T12:18:54;28.10;38.70
27492;DHT22;14927;51.210;6.838;2023-05-07T12:21:39;28.10;38.50
27492;DHT22;14927;51.210;6.838;2023-05-07T12:24:24;28.10;38.20
27492;DHT22;14927;51.210;6.838;2023-05-07T12:27:09;28.10;38.40
27492;DHT22;14927;51.210;6.838;2023-05-07T12:29:54;28.00;38.40
27492;DHT22;14927;51.210;6.838;2023-05-07T12:32:39;28.00;38.60
27492;DHT22;14927;51.210;6.838;2023-05-07T12:35:27;28.00;39.70
27492;DHT22;14927;51.210;6.838;2023-05-07T12:38:17;27.90;39.50
27492;DHT22;14927;51.210;6.838;2023-05-07T12:41:02;27.90;39.80
27492;DHT22;14927;51.210;6.838;2023-05-07T12:43:47;27.90;39.90
27492;DHT22;14927;51.210;6.838;2023-05-07T12:46:31;27.90;39.80
27492;DHT22;14927;51.210;6.838;2023-05-07T12:49:16;27.80;40.00
27492;DHT22;14927;51.210;6.838;2023-05-07T12:52:02;27.80;40.30
27492;DHT22;14927;51.210;6.838;2023-05-07T12:54:47;27.80;40.90
27492;DHT22;14927;51.210;6.838;2023-05-07T12:57:38;27.70;40.30
27492;DHT22;14927;51.210;6.838;2023-05-07T13:00:37;27.70;40.80
27492;DHT22;14927;51.210;6.838;2023-05-07T13:03:31;27.70;41.00
27492;DHT22;14927;51.210;6.838;2023-05-07T13:06:16;27.60;41.40
27492;DHT22;14927;51.210;6.838;2023-05-07T13:09:01;27.60;41.60
27492;DHT22;14927;51.210;6.838;2023-05-07T13:11:45;27.60;41.90
27492;DHT22;14927;51.210;6.838;2023-05-07T13:14:31;27.50;42.00
27492;DHT22;14927;51.210;6.838;2023-05-07T13:17:15;27.50;42.10
27492;DHT22;14927;51.210;6.838;2023-05-07T13:20:00;27.50;42.40
27492;DHT22;14927;51.210;6.838;2023-05-07T13:22:44;27.40;42.70
27492;DHT22;14927;51.210;6.838;2023-05-07T13:25:29;27.40;42.60
27492;DHT22;14927;51.210;6.838;2023-05-07T13:28:15;27.40;42.80
27492;DHT22;14927;51.210;6.838;2023-05-07T13:31:00;27.30;42.80
27492;DHT22;14927;51.210;6.838;2023-05-07T13:33:44;27.20;43.00
27492;DHT22;14927;51.210;6.838;2023-05-07T13:36:29;27.20;43.50
27492;DHT22;14927;51.210;6.838;2023-05-07T13:39:17;27.10;43.60
27492;DHT22;14927;51.210;6.838;2023-05-07T13:42:02;27.00;43.60
27492;DHT22;14927;51.210;6.838;2023-05-07T13:44:47;26.90;43.90
27492;DHT22;14927;51.210;6.838;2023-05-07T13:47:31;26.80;45.00
27492;DHT22;14927;51.210;6.838;2023-05-07T13:50:16;26.80;46.20
27492;DHT22;14927;51.210;6.838;2023-05-07T13:53:00;26.60;47.00
27492;DHT22;14927;51.210;6.838;2023-05-07T13:55:45;26.50;47.80
27492;DHT22;14927;51.210;6.838;2023-05-07T13:58:30;26.30;48.40
27492;DHT22;14927;51.210;6.838;2023-05-07T14:01:15;26.20;49.50
27492;DHT22;14927;51.210;6.838;2023-05-07T14:04:02;26.00;50.20
27492;DHT22;14927;51.210;6.838;2023-05-07T14:06:47;25.90;50.90
27492;DHT22;14927;51.210;6.838;2023-05-07T14:09:38;25.70;51.80
27492;DHT22;14927;51.210;6.838;2023-05-07T14:12:23;25.30;52.40
27492;DHT22;14927;51.210;6.838;2023-05-07T14:15:08;25.40;52.80
27492;DHT22;14927;51.210;6.838;2023-05-07T14:17:53;25.20;53.10
27492;DHT22;14927;51.210;6.838;2023-05-07T14:20:38;25.00;53.10
27492;DHT22;14927;51.210;6.838;2023-05-07T14:23:22;24.90;53.40
27492;DHT22;14927;51.210;6.838;2023-05-07T14:26:10;24.70;53.70
27492;DHT22;14927;51.210;6.838;2023-05-07T14:28:55;24.60;54.20
27492;DHT22;14927;51.210;6.838;2023-05-07T14:31:41;24.40;54.70
27492;DHT22;14927;51.210;6.838;2023-05-07T14:34:26;24.30;55.20
27492;DHT22;14927;51.210;6.838;2023-05-07T14:37:12;24.20;56.00
27492;DHT22;14927;51.210;6.838;2023-05-07T14:39:56;24.10;56.60
27492;DHT22;14927;51.210;6.838;2023-05-07T14:42:41;24.00;57.20
27492;DHT22;14927;51.210;6.838;2023-05-07T14:45:25;23.90;57.40
27492;DHT22;14927;51.210;6.838;2023-05-07T14:48:13;23.90;57.80
27492;DHT22;14927;51.210;6.838;2023-05-07T14:54:39;23.70;59.10
27492;DHT22;14927;51.210;6.838;2023-05-07T15:01:13;23.90;59.00
27492;DHT22;14927;51.210;6.838;2023-05-07T15:04:28;23.60;60.40
27492;DHT22;14927;51.210;6.838;2023-05-07T15:07:29;23.60;59.50
27492;DHT22;14927;51.210;6.838;2023-05-07T15:10:16;23.50;59.20
27492;DHT22;14927;51.210;6.838;2023-05-07T15:13:01;23.50;59.70
27492;DHT22;14927;51.210;6.838;2023-05-07T15:15:46;23.50;59.90
27492;DHT22;14927;51.210;6.838;2023-05-07T15:18:36;23.50;59.80
27492;DHT22;14927;51.210;6.838;2023-05-07T15:21:21;23.40;59.40
27492;DHT22;14927;51.210;6.838;2023-05-07T15:24:06;23.40;59.40
27492;DHT22;14927;51.210;6.838;2023-05-07T15:26:52;23.40;59.40
27492;DHT22;14927;51.210;6.838;2023-05-07T15:29:37;23.40;59.60
27492;DHT22;14927;51.210;6.838;2023-05-07T15:32:24;23.40;59.60
27492;DHT22;14927;51.210;6.838;2023-05-07T15:35:09;23.30;59.70
27492;DHT22;14927;51.210;6.838;2023-05-07T15:37:54;23.30;59.60
27492;DHT22;14927;51.210;6.838;2023-05-07T15:40:39;23.30;59.50
27492;DHT22;14927;51.210;6.838;2023-05-07T15:43:27;23.30;59.80
27492;DHT22;14927;51.210;6.838;2023-05-07T15:46:11;23.30;60.10
27492;DHT22;14927;51.210;6.838;2023-05-07T15:48:57;23.10;60.60
27492;DHT22;14927;51.210;6.838;2023-05-07T15:51:42;23.30;60.80
27492;DHT22;14927;51.210;6.838;2023-05-07T15:54:27;23.20;60.80
27492;DHT22;14927;51.210;6.838;2023-05-07T15:57:11;23.30;61.20
27492;DHT22;14927;51.210;6.838;2023-05-07T15:59:56;23.30;61.40
27492;DHT22;14927;51.210;6.838;2023-05-07T16:02:41;23.20;61.20
27492;DHT22;14927;51.210;6.838;2023-05-07T16:05:25;23.30;61.40
27492;DHT22;14927;51.210;6.838;2023-05-07T16:08:11;23.30;61.90
27492;DHT22;14927;51.210;6.838;2023-05-07T16:10:55;23.40;62.40
27492;DHT22;14927;51.210;6.838;2023-05-07T16:13:40;23.40;62.30
27492;DHT22;14927;51.210;6.838;2023-05-07T16:16:25;23.40;62.30
27492;DHT22;14927;51.210;6.838;2023-05-07T16:19:13;23.40;62.90
27492;DHT22;14927;51.210;6.838;2023-05-07T16:21:57;23.40;63.00
27492;DHT22;14927;51.210;6.838;2023-05-07T16:24:42;23.40;62.90
27492;DHT22;14927;51.210;6.838;2023-05-07T16:27:27;23.50;63.00
27492;DHT22;14927;51.210;6.838;2023-05-07T16:30:11;23.50;62.50
27492;DHT22;14927;51.210;6.838;2023-05-07T16:32:56;23.60;62.40
27492;DHT22;14927;51.210;6.838;2023-05-07T16:35:43;23.60;62.50
27492;DHT22;14927;51.210;6.838;2023-05-07T16:38:33;23.70;62.70
27492;DHT22;14927;51.210;6.838;2023-05-07T16:41:18;23.70;62.70
27492;DHT22;14927;51.210;6.838;2023-05-07T16:44:03;23.80;62.30
27492;DHT22;14927;51.210;6.838;2023-05-07T16:46:48;23.90;61.80
27492;DHT22;14927;51.210;6.838;2023-05-07T16:49:33;23.90;61.60
27492;DHT22;14927;51.210;6.838;2023-05-07T16:52:17;24.00;61.40
27492;DHT22;14927;51.210;6.838;2023-05-07T16:55:02;24.10;60.90
27492;DHT22;14927;51.210;6.838;2023-05-07T16:57:47;24.10;60.50
27492;DHT22;14927;51.210;6.838;2023-05-07T17:00:32;24.20;61.00
27492;DHT22;14927;51.210;6.838;2023-05-07T17:03:17;24.20;60.50
27492;DHT22;14927;51.210;6.838;2023-05-07T17:06:01;24.20;60.50
27492;DHT22;14927;51.210;6.838;2023-05-07T17:08:46;24.30;60.40
27492;DHT22;14927;51.210;6.838;2023-05-07T17:11:31;24.30;60.80
27492;DHT22;14927;51.210;6.838;2023-05-07T17:14:17;24.30;60.80
27492;DHT22;14927;51.210;6.838;2023-05-07T17:17:01;24.20;60.70
27492;DHT22;14927;51.210;6.838;2023-05-07T17:19:46;24.20;60.00
27492;DHT22;14927;51.210;6.838;2023-05-07T17:22:31;24.20;59.50
27492;DHT22;14927;51.210;6.838;2023-05-07T17:25:15;24.20;59.50
27492;DHT22;14927;51.210;6.838;2023-05-07T17:28:00;24.10;59.40
27492;DHT22;14927;51.210;6.838;2023-05-07T17:30:44;24.10;59.50
27492;DHT22;14927;51.210;6.838;2023-05-07T17:33:29;24.10;59.80
27492;DHT22;14927;51.210;6.838;2023-05-07T17:36:14;24.10;60.60
27492;DHT22;14927;51.210;6.838;2023-05-07T17:38:59;24.00;59.90
27492;DHT22;14927;51.210;6.838;2023-05-07T17:41:43;24.00;59.80
27492;DHT22;14927;51.210;6.838;2023-05-07T17:44:28;24.00;59.90
27492;DHT22;14927;51.210;6.838;2023-05-07T17:47:12;23.90;59.90
27492;DHT22;14927;51.210;6.838;2023-05-07T17:49:57;23.90;59.90
27492;DHT22;14927;51.210;6.838;2023-05-07T17:52:42;23.90;60.00
27492;DHT22;14927;51.210;6.838;2023-05-07T17:55:26;23.90;60.20
27492;DHT22;14927;51.210;6.838;2023-05-07T17:58:11;23.80;60.10